createdAt,value
2019-02-16T00:02:03.087Z,2.30
2019-02-16T00:07:07.796Z,2.67
2019-02-16T00:12:12.157Z,2.17
2019-02-16T00:17:16.389Z,2.70
2019-02-16T00:22:20.567Z,2.50
2019-02-16T00:27:24.859Z,2.17
2019-02-16T00:32:29.182Z,2.50
2019-02-16T00:37:33.494Z,2.60
2019-02-16T00:42:37.790Z,2.47
2019-02-16T00:47:42.025Z,2.10
2019-02-16T00:52:46.223Z,2.58
2019-02-16T00:57:50.407Z,2.70
2019-02-16T01:02:54.610Z,2.37
2019-02-16T01:07:58.898Z,2.20
2019-02-16T01:13:03.138Z,2.35
2019-02-16T01:18:09.160Z,2.22
2019-02-16T01:23:13.340Z,2.87
2019-02-16T01:28:17.518Z,2.35
2019-02-16T01:33:21.827Z,2.25
2019-02-16T01:38:26.261Z,2.40
2019-02-16T01:43:30.572Z,2.40
2019-02-16T01:48:35.240Z,2.50
2019-02-16T01:53:39.527Z,2.35
2019-02-16T01:58:43.851Z,2.53
2019-02-16T02:03:48.141Z,2.30
2019-02-16T02:08:52.518Z,2.08
2019-02-16T02:13:56.732Z,2.20
2019-02-16T02:19:01.045Z,2.47
2019-02-16T02:24:05.341Z,2.50
2019-02-16T02:29:09.702Z,2.30
2019-02-16T02:34:14.039Z,2.40
2019-02-16T02:39:18.388Z,2.80
2019-02-16T02:44:22.592Z,2.10
2019-02-16T02:49:26.887Z,2.25
2019-02-16T02:54:31.198Z,2.20
2019-02-16T02:59:35.484Z,2.42
2019-02-16T03:04:39.886Z,2.98
2019-02-16T03:09:44.159Z,2.33
2019-02-16T03:14:48.681Z,2.50
2019-02-16T03:19:52.967Z,2.30
2019-02-16T03:24:57.330Z,2.98
2019-02-16T03:30:27.817Z,2.30
2019-02-16T03:35:49.552Z,2.57
2019-02-16T03:40:53.835Z,2.33
2019-02-16T03:45:58.141Z,2.40
2019-02-16T03:51:02.410Z,2.50
2019-02-16T03:56:06.680Z,2.80
2019-02-16T04:01:10.897Z,2.40
2019-02-16T04:06:15.198Z,2.55
2019-02-16T04:11:19.584Z,2.50
2019-02-16T04:16:23.823Z,2.70
2019-02-16T04:21:28.060Z,2.47
2019-02-16T04:26:32.307Z,2.50
2019-02-16T04:31:36.519Z,2.67
2019-02-16T04:36:40.753Z,2.67
2019-02-16T04:41:45.017Z,2.80
2019-02-16T04:46:49.214Z,2.80
2019-02-16T04:51:53.495Z,2.90
2019-02-16T04:56:57.707Z,2.63
2019-02-16T05:02:01.943Z,2.80
2019-02-16T05:07:06.163Z,2.73
2019-02-16T05:12:10.462Z,2.50
2019-02-16T05:17:14.818Z,2.42
2019-02-16T05:22:19.083Z,2.50
2019-02-16T05:27:23.357Z,2.70
2019-02-16T05:32:27.569Z,2.73
2019-02-16T05:37:31.857Z,3.10
2019-02-16T05:42:36.084Z,2.53
2019-02-16T05:47:40.294Z,3.00
2019-02-16T05:52:53.710Z,3.07
2019-02-16T05:57:50.505Z,2.97
2019-02-16T06:02:54.830Z,3.23
2019-02-16T06:07:59.114Z,3.03
2019-02-16T06:13:03.290Z,3.77
2019-02-16T06:18:07.484Z,3.07
2019-02-16T06:23:11.759Z,3.07
2019-02-16T06:28:15.956Z,2.73
2019-02-16T06:33:20.194Z,3.30
2019-02-16T06:38:24.470Z,3.30
2019-02-16T06:43:28.750Z,3.03
2019-02-16T06:48:32.954Z,3.07
2019-02-16T06:53:37.150Z,4.33
2019-02-16T06:58:41.383Z,3.43
2019-02-16T07:03:45.766Z,2.83
2019-02-16T07:08:49.999Z,3.00
2019-02-16T07:13:54.337Z,3.30
2019-02-16T07:19:02.464Z,2.80
2019-02-16T07:24:06.722Z,2.72
2019-02-16T07:29:11.041Z,2.90
2019-02-16T07:34:15.271Z,2.77
2019-02-16T07:39:19.525Z,3.58
2019-02-16T07:44:45.536Z,3.42
2019-02-16T07:50:07.363Z,2.90
2019-02-16T07:55:31.392Z,3.87
2019-02-16T08:00:56.126Z,3.75
2019-02-16T08:06:22.403Z,3.60
2019-02-16T08:11:45.193Z,3.65
2019-02-16T08:16:58.464Z,3.33
2019-02-16T08:22:15.635Z,3.30
2019-02-16T08:27:39.698Z,4.78
2019-02-16T08:33:01.539Z,3.15
2019-02-16T08:38:13.956Z,3.60
2019-02-16T08:43:35.815Z,3.17
2019-02-16T08:48:59.052Z,3.65
2019-02-16T08:54:37.496Z,3.62
2019-02-16T09:00:15.867Z,3.50
2019-02-16T09:05:45.495Z,3.55
2019-02-16T09:11:11.347Z,4.10
2019-02-16T09:16:29.286Z,3.87
2019-02-16T09:21:46.433Z,3.95
2019-02-16T09:27:08.322Z,4.20
2019-02-16T09:32:31.664Z,4.03
2019-02-16T09:37:54.974Z,4.00
2019-02-16T09:43:18.255Z,4.03
2019-02-16T09:48:41.516Z,4.10
2019-02-16T09:54:08.419Z,4.42
2019-02-16T09:59:17.335Z,3.85
2019-02-16T10:04:30.039Z,4.45
2019-02-16T10:09:52.802Z,4.40
2019-02-16T10:15:07.926Z,4.37
2019-02-16T10:20:33.936Z,4.03
2019-02-16T10:26:06.134Z,4.42
2019-02-16T10:31:34.227Z,4.60
2019-02-16T10:36:54.652Z,4.58
2019-02-16T10:42:17.448Z,4.33
2019-02-16T10:47:32.186Z,4.80
2019-02-16T10:52:46.243Z,4.53
2019-02-16T10:57:56.251Z,4.55
2019-02-16T11:03:18.189Z,4.95
2019-02-16T11:08:28.344Z,4.65
2019-02-16T11:14:00.840Z,4.60
2019-02-16T11:19:13.711Z,5.05
2019-02-16T11:24:46.231Z,4.75
2019-02-16T11:30:09.477Z,6.10
2019-02-16T11:35:20.476Z,4.85
2019-02-16T11:40:34.613Z,4.35
2019-02-16T11:45:58.303Z,4.65
2019-02-16T11:51:24.307Z,4.85
2019-02-16T11:56:46.936Z,5.90
2019-02-16T12:02:06.222Z,4.42
2019-02-16T12:07:23.168Z,4.33
2019-02-16T12:12:49.447Z,4.33
2019-02-16T12:18:02.526Z,4.92
2019-02-16T12:23:40.750Z,4.90
2019-02-16T12:29:02.937Z,5.20
2019-02-16T12:34:26.493Z,4.78
2019-02-16T12:39:51.646Z,4.75
2019-02-16T12:45:00.784Z,5.17
2019-02-16T12:50:37.093Z,5.17
2019-02-16T12:56:00.349Z,5.40
2019-02-16T13:01:23.599Z,5.22
2019-02-16T13:06:44.982Z,5.35
2019-02-16T13:12:20.597Z,5.12
2019-02-16T13:17:33.900Z,5.60
2019-02-16T13:22:43.822Z,5.50
2019-02-16T13:28:08.956Z,5.80
2019-02-16T13:33:41.331Z,5.37
2019-02-16T13:39:04.086Z,5.50
2019-02-16T13:44:24.662Z,5.53
2019-02-16T13:49:35.313Z,5.55
2019-02-16T13:54:50.517Z,4.95
2019-02-16T14:00:12.438Z,5.05
2019-02-16T14:05:25.336Z,5.53
2019-02-16T14:10:48.566Z,5.17
2019-02-16T14:16:17.724Z,5.55
2019-02-16T14:21:21.936Z,6.10
2019-02-16T14:26:26.178Z,5.47
2019-02-16T14:31:30.417Z,5.55
2019-02-16T14:36:34.750Z,5.50
2019-02-16T14:41:39.058Z,5.53
2019-02-16T14:46:43.302Z,5.33
2019-02-16T14:51:47.519Z,5.72
2019-02-16T14:56:51.715Z,5.58
2019-02-16T15:01:55.924Z,5.53
2019-02-16T15:07:00.156Z,5.45
2019-02-16T15:12:04.367Z,5.45
2019-02-16T15:17:08.584Z,5.90
2019-02-16T15:22:12.860Z,5.87
2019-02-16T15:27:17.060Z,6.20
2019-02-16T15:32:21.383Z,6.08
2019-02-16T15:37:25.682Z,6.22
2019-02-16T15:42:30.039Z,6.72
2019-02-16T15:47:34.290Z,6.05
2019-02-16T15:52:38.490Z,5.90
2019-02-16T15:57:42.834Z,6.58
2019-02-16T16:02:47.149Z,5.62
2019-02-16T16:08:25.147Z,5.80
2019-02-16T16:13:53.802Z,6.25
2019-02-16T16:19:18.175Z,5.80
2019-02-16T16:24:49.857Z,5.85
2019-02-16T16:30:06.287Z,5.87
2019-02-16T16:35:41.213Z,7.08
2019-02-16T16:41:03.126Z,6.25
2019-02-16T16:46:29.195Z,7.00
2019-02-16T16:51:52.423Z,6.42
2019-02-16T16:57:15.714Z,6.60
2019-02-16T17:02:42.308Z,6.95
2019-02-16T17:07:53.053Z,6.87
2019-02-16T17:13:15.163Z,7.20
2019-02-16T17:18:50.736Z,7.30
2019-02-16T17:24:20.212Z,7.40
2019-02-16T17:29:39.363Z,8.50
2019-02-16T17:34:53.616Z,7.58
2019-02-16T17:40:25.684Z,8.93
2019-02-16T17:46:07.017Z,9.60
2019-02-16T17:51:30.653Z,9.88
2019-02-16T17:56:56.680Z,9.20
2019-02-16T18:02:17.050Z,10.30
2019-02-16T18:07:43.071Z,11.12
2019-02-16T18:13:02.601Z,10.48
2019-02-16T18:18:25.844Z,11.53
2019-02-16T18:23:58.123Z,11.65
2019-02-16T18:29:22.084Z,13.30
2019-02-16T18:34:51.467Z,11.88
2019-02-16T18:40:13.391Z,10.93
2019-02-16T18:45:25.881Z,11.33
2019-02-16T18:50:42.773Z,11.08
2019-02-16T18:55:58.512Z,12.50
2019-02-16T19:01:31.103Z,11.45
2019-02-16T19:06:53.188Z,15.48
2019-02-16T19:12:08.257Z,13.72
2019-02-16T19:17:21.965Z,12.10
2019-02-16T19:22:57.589Z,13.32
2019-02-16T19:28:35.955Z,11.95
2019-02-16T19:33:54.166Z,12.60
2019-02-16T19:39:35.565Z,13.15
2019-02-16T19:44:57.455Z,12.90
2019-02-16T19:50:30.064Z,14.37
2019-02-16T19:55:43.056Z,13.37
2019-02-16T20:01:08.181Z,11.20
2019-02-16T20:06:49.919Z,10.23
2019-02-16T20:12:19.116Z,11.27
2019-02-16T20:17:31.556Z,11.00
2019-02-16T20:23:13.634Z,11.65
2019-02-16T20:28:45.829Z,11.10
2019-02-16T20:33:56.344Z,10.88
2019-02-16T20:39:26.818Z,11.78
2019-02-16T20:44:58.986Z,10.65
2019-02-16T20:50:20.935Z,25.40
2019-02-16T20:55:43.144Z,12.73
2019-02-16T21:01:18.444Z,11.85
2019-02-16T21:06:34.960Z,11.73
2019-02-16T21:12:07.327Z,12.50
2019-02-16T21:17:39.627Z,12.93
2019-02-16T21:23:00.671Z,13.63
2019-02-16T21:28:13.338Z,13.68
2019-02-16T21:33:36.558Z,14.00
2019-02-16T21:39:03.112Z,13.25
2019-02-16T21:44:33.412Z,13.03
2019-02-16T21:49:56.846Z,13.10
2019-02-16T21:55:32.174Z,13.33
2019-02-16T22:00:50.592Z,14.67
2019-02-16T22:06:20.131Z,13.53
2019-02-16T22:11:49.690Z,14.03
2019-02-16T22:16:54.258Z,14.50
2019-02-16T22:21:58.563Z,15.37
2019-02-16T22:27:02.762Z,17.00
2019-02-16T22:32:06.946Z,16.60
2019-02-16T22:37:11.279Z,15.00
2019-02-16T22:42:15.499Z,13.97
2019-02-16T22:47:19.726Z,14.47
2019-02-16T22:52:24.153Z,14.40
2019-02-16T22:57:28.350Z,14.30
2019-02-16T23:02:32.611Z,13.93
2019-02-16T23:07:36.808Z,12.87
2019-02-16T23:12:41.058Z,13.70
2019-02-16T23:17:45.349Z,13.63
2019-02-16T23:22:49.583Z,14.70
2019-02-16T23:27:53.894Z,12.67
2019-02-16T23:32:58.197Z,13.13
2019-02-16T23:38:02.422Z,13.20
2019-02-16T23:43:06.753Z,12.80
2019-02-16T23:48:10.957Z,12.63
2019-02-16T23:53:15.164Z,13.10
2019-02-16T23:58:19.381Z,11.87
